createdAt,value
2022-10-23T00:01:44.456Z,18.97
2022-10-23T00:04:19.796Z,15.75
2022-10-23T00:06:43.152Z,16.60
2022-10-23T00:09:08.601Z,16.63
2022-10-23T00:11:32.087Z,18.17
2022-10-23T00:13:57.781Z,17.13
2022-10-23T00:16:19.764Z,16.60
2022-10-23T00:18:41.957Z,18.93
2022-10-23T00:21:05.364Z,15.60
2022-10-23T00:23:27.284Z,15.87
2022-10-23T00:25:49.360Z,17.77
2022-10-23T00:28:11.215Z,18.90
2022-10-23T00:30:33.044Z,15.73
2022-10-23T00:32:54.907Z,15.90
2022-10-23T00:35:17.010Z,19.70
2022-10-23T00:37:38.820Z,18.40
2022-10-23T00:40:00.638Z,16.60
2022-10-23T00:42:23.800Z,16.67
2022-10-23T00:44:45.533Z,17.00
2022-10-23T00:47:07.383Z,14.60
2022-10-23T00:49:29.283Z,16.00
2022-10-23T00:51:57.042Z,14.10
2022-10-23T00:54:25.806Z,13.63
2022-10-23T00:56:48.325Z,13.83
2022-10-23T00:59:11.087Z,13.07
2022-10-23T01:01:33.171Z,18.07
2022-10-23T01:03:55.894Z,12.40
2022-10-23T01:06:37.888Z,13.77
2022-10-23T01:09:18.549Z,17.63
2022-10-23T01:12:00.908Z,15.23
2022-10-23T01:14:55.079Z,16.27
2022-10-23T01:17:34.665Z,12.33
2022-10-23T01:20:18.103Z,14.70
2022-10-23T01:23:17.645Z,16.30
2022-10-23T01:26:15.631Z,13.83
2022-10-23T01:29:01.604Z,17.00
2022-10-23T01:31:37.493Z,14.23
2022-10-23T01:34:18.674Z,15.47
2022-10-23T01:36:46.913Z,16.50
2022-10-23T01:39:19.396Z,15.40
2022-10-23T01:41:55.850Z,14.00
2022-10-23T01:44:36.602Z,13.20
2022-10-23T01:46:58.949Z,13.10
2022-10-23T01:49:24.898Z,14.73
2022-10-23T01:51:57.402Z,11.50
2022-10-23T01:54:33.878Z,13.17
2022-10-23T01:56:58.794Z,13.33
2022-10-23T01:59:35.309Z,13.57
2022-10-23T02:02:00.642Z,13.70
2022-10-23T02:04:34.242Z,19.30
2022-10-23T02:06:56.751Z,15.27
2022-10-23T02:09:19.049Z,15.40
2022-10-23T02:11:57.720Z,16.57
2022-10-23T02:14:58.344Z,15.57
2022-10-23T02:18:00.262Z,16.33
2022-10-23T02:20:38.490Z,16.90
2022-10-23T02:23:15.149Z,13.53
2022-10-23T02:25:58.077Z,11.53
2022-10-23T02:28:28.952Z,12.67
2022-10-23T02:30:58.762Z,11.07
2022-10-23T02:33:21.018Z,10.67
2022-10-23T02:35:43.371Z,13.67
2022-10-23T02:38:42.745Z,15.03
2022-10-23T02:41:25.145Z,14.17
2022-10-23T02:44:32.107Z,14.57
2022-10-23T02:47:13.118Z,13.23
2022-10-23T02:49:53.075Z,12.07
2022-10-23T02:52:42.703Z,13.07
2022-10-23T02:55:24.982Z,14.90
2022-10-23T02:58:00.196Z,15.40
2022-10-23T03:00:23.535Z,13.13
2022-10-23T03:02:58.782Z,11.77
2022-10-23T03:05:31.628Z,12.77
2022-10-23T03:07:54.070Z,15.60
2022-10-23T03:10:16.291Z,12.83
2022-10-23T03:12:38.691Z,12.90
2022-10-23T03:15:01.300Z,15.57
2022-10-23T03:17:23.278Z,12.97
2022-10-23T03:19:50.140Z,15.23
2022-10-23T03:22:12.009Z,13.23
2022-10-23T03:24:33.811Z,14.57
2022-10-23T03:26:55.681Z,13.57
2022-10-23T03:29:25.037Z,12.17
2022-10-23T03:31:46.897Z,11.73
2022-10-23T03:34:11.312Z,12.77
2022-10-23T03:36:35.631Z,14.60
2022-10-23T03:39:00.102Z,11.87
2022-10-23T03:41:22.141Z,18.50
2022-10-23T03:43:43.983Z,14.97
2022-10-23T03:46:09.327Z,18.97
2022-10-23T03:48:32.656Z,15.50
2022-10-23T03:50:54.529Z,12.97
2022-10-23T03:53:16.295Z,12.93
2022-10-23T03:55:38.063Z,14.77
2022-10-23T03:57:59.839Z,13.07
2022-10-23T04:00:22.742Z,11.80
2022-10-23T04:02:44.902Z,12.60
2022-10-23T04:05:07.607Z,14.93
2022-10-23T04:07:29.371Z,15.60
2022-10-23T04:09:52.037Z,13.13
2022-10-23T04:12:13.894Z,16.43
2022-10-23T04:14:35.752Z,14.00
2022-10-23T04:16:58.252Z,19.10
2022-10-23T04:19:22.172Z,14.77
2022-10-23T04:21:45.342Z,15.13
2022-10-23T04:24:07.698Z,16.83
2022-10-23T04:26:29.442Z,14.07
2022-10-23T04:28:51.304Z,15.00
2022-10-23T04:31:13.323Z,15.73
2022-10-23T04:33:37.286Z,12.40
2022-10-23T04:35:59.115Z,14.30
2022-10-23T04:38:20.939Z,14.17
2022-10-23T04:40:43.737Z,15.13
2022-10-23T04:43:05.631Z,12.80
2022-10-23T04:45:31.866Z,12.70
2022-10-23T04:47:53.621Z,11.17
2022-10-23T04:50:16.007Z,10.67
2022-10-23T04:52:57.853Z,13.53
2022-10-23T04:55:38.202Z,16.60
2022-10-23T04:58:09.737Z,12.50
2022-10-23T05:00:32.277Z,11.77
2022-10-23T05:02:54.856Z,16.43
2022-10-23T05:05:17.982Z,13.00
2022-10-23T05:07:59.572Z,13.93
2022-10-23T05:10:38.513Z,15.73
2022-10-23T05:13:05.946Z,10.47
2022-10-23T05:15:28.242Z,11.70
2022-10-23T05:17:58.686Z,16.83
2022-10-23T05:20:26.942Z,17.43
2022-10-23T05:22:52.129Z,17.53
2022-10-23T05:25:17.749Z,13.73
2022-10-23T05:27:45.367Z,13.57
2022-10-23T05:30:10.602Z,11.30
2022-10-23T05:32:34.551Z,13.75
2022-10-23T05:34:58.292Z,12.40
2022-10-23T05:37:22.928Z,12.07
2022-10-23T05:39:47.151Z,13.90
2022-10-23T05:42:11.696Z,13.87
2022-10-23T05:44:35.403Z,13.37
2022-10-23T05:47:17.465Z,12.53
2022-10-23T05:49:39.253Z,11.77
2022-10-23T05:52:17.005Z,13.80
2022-10-23T05:55:00.554Z,10.70
2022-10-23T05:57:57.741Z,12.00
2022-10-23T06:00:39.633Z,12.00
2022-10-23T06:03:21.355Z,13.17
2022-10-23T06:05:52.660Z,12.73
2022-10-23T06:08:17.571Z,13.83
2022-10-23T06:10:39.737Z,15.77
2022-10-23T06:13:03.658Z,14.07
2022-10-23T06:15:26.198Z,13.37
2022-10-23T06:18:04.857Z,10.77
2022-10-23T06:20:29.910Z,15.13
2022-10-23T06:23:05.963Z,11.20
2022-10-23T06:25:54.615Z,9.43
2022-10-23T06:28:21.253Z,10.77
2022-10-23T06:30:43.656Z,12.40
2022-10-23T06:33:06.546Z,11.77
2022-10-23T06:35:28.726Z,14.77
2022-10-23T06:37:50.474Z,9.03
2022-10-23T06:40:21.634Z,9.57
2022-10-23T06:42:56.501Z,11.40
2022-10-23T06:45:53.762Z,10.13
2022-10-23T06:48:48.415Z,16.57
2022-10-23T06:51:18.041Z,15.00
2022-10-23T06:53:40.564Z,12.73
2022-10-23T06:56:29.304Z,11.33
2022-10-23T06:58:51.891Z,10.37
2022-10-23T07:01:16.533Z,11.70
2022-10-23T07:03:40.515Z,12.80
2022-10-23T07:06:07.475Z,11.45
2022-10-23T07:08:30.825Z,11.30
2022-10-23T07:10:53.084Z,11.00
2022-10-23T07:13:14.996Z,12.20
2022-10-23T07:16:16.584Z,8.17
2022-10-23T07:18:38.477Z,12.60
2022-10-23T07:21:35.941Z,7.80
2022-10-23T07:24:18.200Z,10.67
2022-10-23T07:26:41.458Z,9.43
2022-10-23T07:29:03.781Z,9.30
2022-10-23T07:31:28.374Z,7.88
2022-10-23T07:34:11.171Z,16.50
2022-10-23T07:36:33.243Z,9.80
2022-10-23T07:38:55.183Z,10.33
2022-10-23T07:41:17.525Z,8.00
2022-10-23T07:43:39.782Z,9.73
2022-10-23T07:46:01.970Z,10.17
2022-10-23T07:48:31.867Z,13.07
2022-10-23T07:51:00.981Z,9.20
2022-10-23T07:53:25.644Z,9.40
2022-10-23T07:56:00.116Z,8.27
2022-10-23T07:58:34.307Z,21.03
2022-10-23T08:01:20.813Z,9.57
2022-10-23T08:03:42.597Z,7.97
2022-10-23T08:06:04.567Z,10.30
2022-10-23T08:08:27.485Z,10.03
2022-10-23T08:10:55.765Z,9.63
2022-10-23T08:13:23.951Z,8.33
2022-10-23T08:15:53.137Z,10.73
2022-10-23T08:18:33.898Z,10.40
2022-10-23T08:21:02.701Z,12.27
2022-10-23T08:23:24.607Z,8.07
2022-10-23T08:25:47.521Z,9.00
2022-10-23T08:28:12.063Z,8.00
2022-10-23T08:30:45.032Z,12.23
2022-10-23T08:33:07.931Z,7.60
2022-10-23T08:35:29.828Z,9.80
2022-10-23T08:37:52.457Z,9.80
2022-10-23T08:40:18.149Z,10.40
2022-10-23T08:43:08.519Z,7.20
2022-10-23T08:46:04.142Z,9.47
2022-10-23T08:48:56.864Z,6.32
2022-10-23T08:51:44.669Z,6.00
2022-10-23T08:54:33.184Z,9.27
2022-10-23T08:57:12.878Z,7.40
2022-10-23T08:59:47.815Z,8.30
2022-10-23T09:04:50.097Z,7.23
2022-10-23T09:07:39.598Z,11.73
2022-10-23T09:10:38.120Z,5.10
2022-10-23T09:13:28.820Z,7.47
2022-10-23T09:16:26.713Z,8.90
2022-10-23T09:18:49.959Z,6.67
2022-10-23T09:21:11.839Z,8.83
2022-10-23T09:23:33.578Z,7.80
2022-10-23T09:25:56.959Z,6.87
2022-10-23T09:28:27.400Z,8.20
2022-10-23T09:30:50.791Z,6.93
2022-10-23T09:33:34.683Z,11.30
2022-10-23T09:36:19.670Z,9.37
2022-10-23T09:38:47.601Z,7.25
2022-10-23T09:41:26.320Z,6.30
2022-10-23T09:44:22.541Z,7.20
2022-10-23T09:49:23.547Z,5.37
2022-10-23T09:51:54.622Z,6.33
2022-10-23T09:54:17.205Z,8.53
2022-10-23T09:59:15.736Z,6.63
2022-10-23T10:01:55.613Z,8.03
2022-10-23T10:04:42.072Z,8.23
2022-10-23T10:07:19.337Z,9.93
2022-10-23T10:09:41.109Z,8.40
2022-10-23T10:12:38.420Z,7.77
2022-10-23T10:15:23.767Z,9.80
2022-10-23T10:21:00.682Z,9.65
2022-10-23T10:24:00.623Z,8.13
2022-10-23T10:26:46.499Z,4.63
2022-10-23T10:29:25.663Z,8.70
2022-10-23T10:32:25.307Z,5.43
2022-10-23T10:35:10.234Z,8.50
2022-10-23T10:38:12.685Z,5.68
2022-10-23T10:40:42.120Z,4.90
2022-10-23T10:43:38.797Z,7.83
2022-10-23T10:46:33.798Z,6.27
2022-10-23T10:49:16.003Z,4.13
2022-10-23T10:52:25.920Z,6.90
2022-10-23T10:55:05.468Z,7.30
2022-10-23T10:57:41.862Z,9.57
2022-10-23T11:00:20.882Z,5.63
2022-10-23T11:03:02.750Z,4.10
2022-10-23T11:05:43.375Z,6.67
2022-10-23T11:08:28.349Z,8.80
2022-10-23T11:10:57.933Z,5.20
2022-10-23T11:13:29.540Z,8.03
2022-10-23T11:15:59.158Z,6.77
2022-10-23T11:18:29.604Z,7.10
2022-10-23T11:21:17.559Z,7.60
2022-10-23T11:24:11.930Z,6.03
2022-10-23T11:27:02.018Z,8.73
2022-10-23T11:30:04.394Z,5.10
2022-10-23T11:33:35.581Z,6.03
2022-10-23T11:36:48.984Z,7.20
2022-10-23T11:39:21.210Z,7.53
2022-10-23T11:42:15.546Z,4.97
2022-10-23T11:44:49.345Z,5.33
2022-10-23T11:47:39.757Z,5.83
2022-10-23T11:50:15.142Z,7.10
2022-10-23T11:53:17.683Z,8.55
2022-10-23T11:55:39.587Z,5.53
2022-10-23T11:58:07.527Z,6.30
2022-10-23T12:00:31.563Z,5.17
2022-10-23T12:02:59.034Z,5.45
2022-10-23T12:05:40.479Z,7.45
2022-10-23T12:08:07.584Z,5.57
2022-10-23T12:10:52.925Z,5.93
2022-10-23T12:13:36.454Z,4.70
2022-10-23T12:16:00.887Z,5.07
2022-10-23T12:21:02.167Z,6.23
2022-10-23T12:23:48.282Z,5.80
2022-10-23T12:26:46.005Z,3.70
2022-10-23T12:29:32.132Z,6.82
2022-10-23T12:32:09.100Z,5.40
2022-10-23T12:35:08.318Z,7.05
2022-10-23T12:37:56.016Z,4.78
2022-10-23T12:40:18.183Z,6.00
2022-10-23T12:42:40.062Z,5.40
2022-10-23T12:45:17.358Z,3.90
2022-10-23T12:47:40.107Z,7.28
2022-10-23T12:50:01.886Z,8.02
2022-10-23T12:52:25.321Z,6.72
2022-10-23T12:54:50.807Z,5.28
2022-10-23T12:57:23.122Z,4.25
2022-10-23T12:59:46.089Z,6.68
2022-10-23T13:02:27.510Z,5.40
2022-10-23T13:04:53.831Z,5.88
2022-10-23T13:07:22.597Z,5.07
2022-10-23T13:09:46.767Z,5.90
2022-10-23T13:12:30.992Z,7.07
2022-10-23T13:15:20.238Z,5.85
2022-10-23T13:17:59.190Z,5.47
2022-10-23T13:20:26.421Z,9.43
2022-10-23T13:22:59.454Z,8.60
2022-10-23T13:25:33.027Z,6.38
2022-10-23T13:28:09.982Z,7.10
2022-10-23T13:30:38.178Z,7.15
2022-10-23T13:33:00.768Z,6.13
2022-10-23T13:35:24.492Z,4.72
2022-10-23T13:37:46.299Z,6.45
2022-10-23T13:40:19.993Z,5.63
2022-10-23T13:42:42.052Z,5.28
2022-10-23T13:45:09.922Z,6.28
2022-10-23T13:47:31.712Z,5.90
2022-10-23T13:49:53.580Z,6.40
2022-10-23T13:52:22.183Z,5.95
2022-10-23T13:54:43.940Z,5.22
2022-10-23T13:57:12.915Z,6.40
2022-10-23T13:59:34.705Z,5.30
2022-10-23T14:01:56.771Z,6.43
2022-10-23T14:04:19.853Z,6.50
2022-10-23T14:06:42.519Z,6.20
2022-10-23T14:09:06.802Z,6.35
2022-10-23T14:11:28.653Z,6.95
2022-10-23T14:13:52.727Z,6.35
2022-10-23T14:16:17.889Z,8.52
2022-10-23T14:18:40.373Z,6.22
2022-10-23T14:21:04.539Z,6.90
2022-10-23T14:23:26.344Z,10.50
2022-10-23T14:25:48.132Z,8.30
2022-10-23T14:28:09.984Z,7.28
2022-10-23T14:30:31.737Z,7.25
2022-10-23T14:32:53.941Z,6.90
2022-10-23T14:35:15.870Z,7.80
2022-10-23T14:37:37.900Z,8.43
2022-10-23T14:40:00.829Z,5.65
2022-10-23T14:42:23.036Z,8.02
2022-10-23T14:44:45.233Z,5.53
2022-10-23T14:47:07.176Z,5.65
2022-10-23T14:49:29.221Z,7.68
2022-10-23T14:51:51.034Z,5.55
2022-10-23T14:54:12.934Z,6.63
2022-10-23T14:56:40.001Z,5.38
2022-10-23T14:59:04.933Z,5.13
2022-10-23T15:01:26.880Z,5.00
2022-10-23T15:03:54.656Z,10.23
2022-10-23T15:06:18.348Z,5.88
2022-10-23T15:08:40.389Z,5.68
2022-10-23T15:11:06.667Z,6.85
2022-10-23T15:13:31.174Z,5.78
2022-10-23T15:16:06.921Z,8.07
2022-10-23T15:18:28.975Z,7.72
2022-10-23T15:20:53.948Z,4.53
2022-10-23T15:23:15.804Z,7.50
2022-10-23T15:25:40.555Z,5.78
2022-10-23T15:28:02.363Z,5.18
2022-10-23T15:30:24.258Z,8.20
2022-10-23T15:32:46.082Z,8.07
2022-10-23T15:35:08.448Z,7.13
2022-10-23T15:37:30.245Z,6.40
2022-10-23T15:39:52.461Z,5.65
2022-10-23T15:42:14.550Z,7.73
2022-10-23T15:44:37.020Z,8.07
2022-10-23T15:46:59.840Z,7.75
2022-10-23T15:49:21.659Z,6.32
2022-10-23T15:51:44.198Z,7.68
2022-10-23T15:54:09.450Z,7.03
2022-10-23T15:56:31.592Z,7.10
2022-10-23T15:58:53.403Z,5.80
2022-10-23T16:01:15.308Z,11.95
2022-10-23T16:03:39.304Z,7.60
2022-10-23T16:06:11.071Z,10.27
2022-10-23T16:08:33.580Z,7.47
2022-10-23T16:10:55.389Z,5.67
2022-10-23T16:13:17.377Z,5.20
2022-10-23T16:15:39.147Z,7.67
2022-10-23T16:18:00.972Z,10.00
2022-10-23T16:20:22.944Z,12.20
2022-10-23T16:22:45.128Z,9.83
2022-10-23T16:25:07.509Z,16.83
2022-10-23T16:27:29.297Z,11.60
2022-10-23T16:29:51.171Z,10.60
2022-10-23T16:32:13.083Z,9.57
2022-10-23T16:34:34.890Z,6.57
2022-10-23T16:36:56.946Z,7.00
2022-10-23T16:39:32.116Z,8.80
2022-10-23T16:42:29.272Z,9.97
2022-10-23T16:45:17.299Z,5.20
2022-10-23T16:47:39.205Z,6.23
2022-10-23T16:50:01.421Z,6.50
2022-10-23T16:52:23.927Z,6.80
2022-10-23T16:54:45.882Z,7.97
2022-10-23T16:57:07.671Z,7.87
2022-10-23T16:59:29.560Z,9.30
2022-10-23T17:01:51.557Z,7.53
2022-10-23T17:04:13.487Z,5.33
2022-10-23T17:06:36.434Z,6.13
2022-10-23T17:09:00.275Z,5.33
2022-10-23T17:11:26.227Z,12.15
2022-10-23T17:13:58.653Z,6.83
2022-10-23T17:16:34.383Z,8.33
2022-10-23T17:21:22.225Z,6.57
2022-10-23T17:23:44.838Z,7.10
2022-10-23T17:26:15.685Z,7.47
2022-10-23T17:28:40.476Z,6.23
2022-10-23T17:31:02.276Z,8.27
2022-10-23T17:33:24.997Z,10.17
2022-10-23T17:35:46.959Z,9.97
2022-10-23T17:38:08.737Z,8.13
2022-10-23T17:40:33.929Z,10.37
2022-10-23T17:42:55.754Z,8.93
2022-10-23T17:45:17.557Z,6.53
2022-10-23T17:47:41.082Z,6.47
2022-10-23T17:50:03.277Z,4.27
2022-10-23T17:52:25.080Z,7.93
2022-10-23T17:54:52.215Z,7.07
2022-10-23T17:57:14.033Z,8.23
2022-10-23T17:59:35.818Z,6.00
2022-10-23T18:02:00.022Z,7.43
2022-10-23T18:04:22.253Z,11.98
2022-10-23T18:06:52.860Z,10.50
2022-10-23T18:09:15.398Z,9.10
2022-10-23T18:11:46.818Z,6.50
2022-10-23T18:14:10.991Z,6.93
2022-10-23T18:16:37.840Z,8.77
2022-10-23T18:19:00.957Z,7.60
2022-10-23T18:21:24.809Z,7.17
2022-10-23T18:23:46.917Z,5.75
2022-10-23T18:26:22.859Z,7.73
2022-10-23T18:28:47.698Z,7.03
2022-10-23T18:31:11.409Z,6.33
2022-10-23T18:33:33.179Z,9.00
2022-10-23T18:35:54.995Z,6.73
2022-10-23T18:38:16.798Z,5.93
2022-10-23T18:40:41.398Z,9.10
2022-10-23T18:45:37.367Z,8.17
2022-10-23T18:47:59.658Z,6.73
2022-10-23T18:50:21.544Z,6.47
2022-10-23T18:52:43.446Z,8.17
2022-10-23T18:55:07.953Z,8.83
2022-10-23T18:59:55.305Z,9.27
2022-10-23T19:02:20.303Z,6.53
2022-10-23T19:04:42.300Z,5.83
2022-10-23T19:07:04.419Z,6.83
2022-10-23T19:09:26.187Z,5.27
2022-10-23T19:11:48.719Z,5.67
2022-10-23T19:14:10.797Z,8.57
2022-10-23T19:16:59.566Z,6.00
2022-10-23T19:19:35.370Z,6.33
2022-10-23T19:21:58.277Z,6.77
2022-10-23T19:24:32.047Z,4.80
2022-10-23T19:26:54.911Z,6.87
2022-10-23T19:29:21.653Z,6.80
2022-10-23T19:31:48.881Z,6.77
2022-10-23T19:34:11.369Z,6.93
2022-10-23T19:36:33.185Z,7.83
2022-10-23T19:38:54.992Z,8.43
2022-10-23T19:41:18.347Z,6.00
2022-10-23T19:43:40.241Z,5.37
2022-10-23T19:46:06.338Z,6.53
2022-10-23T19:48:31.455Z,4.80
2022-10-23T19:50:53.344Z,4.07
2022-10-23T19:53:16.859Z,4.30
2022-10-23T19:55:38.754Z,5.13
2022-10-23T19:58:00.808Z,5.30
2022-10-23T20:00:22.988Z,5.40
2022-10-23T20:02:44.803Z,3.30
2022-10-23T20:05:08.639Z,5.47
2022-10-23T20:07:30.436Z,4.53
2022-10-23T20:09:52.437Z,4.33
2022-10-23T20:12:14.555Z,4.60
2022-10-23T20:14:36.374Z,3.37
2022-10-23T20:16:59.777Z,3.27
2022-10-23T20:19:21.569Z,4.13
2022-10-23T20:21:47.247Z,4.00
2022-10-23T20:24:11.359Z,4.80
2022-10-23T20:26:33.347Z,2.72
2022-10-23T20:28:56.478Z,3.30
2022-10-23T20:31:20.890Z,2.23
2022-10-23T20:33:43.443Z,5.03
2022-10-23T20:36:08.508Z,3.63
2022-10-23T20:38:30.458Z,2.03
2022-10-23T20:40:56.456Z,3.23
2022-10-23T20:43:18.342Z,6.03
2022-10-23T20:45:40.158Z,4.20
2022-10-23T20:48:01.960Z,3.10
2022-10-23T20:50:24.183Z,4.83
2022-10-23T20:52:46.093Z,3.93
2022-10-23T20:55:08.494Z,2.67
2022-10-23T20:57:30.289Z,6.80
2022-10-23T20:59:53.416Z,2.33
2022-10-23T21:02:15.277Z,5.27
2022-10-23T21:04:37.212Z,5.97
2022-10-23T21:07:15.348Z,3.80
2022-10-23T21:09:37.946Z,4.30
2022-10-23T21:12:00.088Z,5.60
2022-10-23T21:14:21.909Z,4.80
2022-10-23T21:16:46.434Z,5.53
2022-10-23T21:21:33.243Z,3.93
2022-10-23T21:23:59.474Z,5.13
2022-10-23T21:26:24.604Z,4.63
2022-10-23T21:28:56.225Z,3.13
2022-10-23T21:31:28.980Z,6.53
2022-10-23T21:33:50.802Z,5.03
2022-10-23T21:36:19.691Z,3.87
2022-10-23T21:38:41.558Z,6.43
2022-10-23T21:41:14.187Z,4.03
2022-10-23T21:43:36.284Z,3.10
2022-10-23T21:45:58.896Z,4.23
2022-10-23T21:48:20.744Z,2.37
2022-10-23T21:50:42.517Z,3.87
2022-10-23T21:53:04.320Z,4.90
2022-10-23T21:55:30.333Z,5.07
2022-10-23T21:57:52.110Z,7.47
2022-10-23T22:00:19.620Z,4.60
2022-10-23T22:02:41.615Z,6.57
2022-10-23T22:05:03.886Z,5.93
2022-10-23T22:07:29.914Z,5.70
2022-10-23T22:09:52.166Z,5.83
2022-10-23T22:12:14.042Z,6.87
2022-10-23T22:14:37.425Z,6.47
2022-10-23T22:16:59.266Z,6.97
2022-10-23T22:19:22.725Z,7.60
2022-10-23T22:21:45.166Z,7.13
2022-10-23T22:24:07.688Z,6.33
2022-10-23T22:26:32.179Z,9.07
2022-10-23T22:29:01.097Z,6.68
2022-10-23T22:31:27.696Z,8.73
2022-10-23T22:33:50.923Z,10.07
2022-10-23T22:36:13.197Z,5.33
2022-10-23T22:38:35.108Z,8.50
2022-10-23T22:40:56.968Z,6.40
2022-10-23T22:43:18.711Z,8.07
2022-10-23T22:45:40.479Z,8.10
2022-10-23T22:48:02.419Z,6.33
2022-10-23T22:50:24.238Z,6.73
2022-10-23T22:52:46.235Z,7.63
2022-10-23T22:55:09.968Z,6.30
2022-10-23T22:57:31.727Z,7.63
2022-10-23T22:59:53.491Z,7.67
2022-10-23T23:02:15.360Z,6.60
2022-10-23T23:04:38.695Z,7.13
2022-10-23T23:07:01.054Z,8.55
2022-10-23T23:09:22.959Z,10.40
2022-10-23T23:11:51.302Z,6.73
2022-10-23T23:14:15.746Z,8.60
2022-10-23T23:16:40.095Z,7.67
2022-10-23T23:19:04.399Z,9.43
2022-10-23T23:21:27.560Z,8.30
2022-10-23T23:23:49.425Z,9.20
2022-10-23T23:26:12.136Z,7.97
2022-10-23T23:28:33.949Z,6.83
2022-10-23T23:31:09.578Z,6.27
2022-10-23T23:33:31.538Z,6.53
2022-10-23T23:35:53.304Z,7.30
2022-10-23T23:38:15.206Z,6.50
2022-10-23T23:40:37.902Z,7.70
2022-10-23T23:42:59.694Z,9.27
2022-10-23T23:45:21.458Z,10.07
2022-10-23T23:47:43.624Z,5.57
2022-10-23T23:50:08.534Z,7.40
2022-10-23T23:52:30.336Z,9.40
2022-10-23T23:54:52.123Z,9.57
2022-10-23T23:57:14.166Z,9.80
2022-10-23T23:59:38.110Z,11.20
